North Reading, Massachusetts
Current Conditions -  °F | °C
As of 9:53 PM on Thursday 18 Dec 2014 (Local Time) from KBVY Reporting Station
Overcast Overcast  
Wind Chill: 30°   Ceiling: 3600
Heat Index: 37°   Visibility: 10mi
Dew Point: 27°   Wind: 10mph
Humidity: 67%   Direction: 310°NW
Pressure: 29.84"   Gusts: 22mph
Location:  42.57°N, 71.08°W
Report Text: KBVY 190253Z AUTO 31009G19KT 10SM OVC036 03/M03 A2984 RMK AO2 SLP100 T00281028 51003
Loading
Personal Weather Stations






























Interactive Weather Map New forecast layout! Learn more

10-Day Weather Forecast

Advertisements
Track Severe Weather on mobile